Time;durP1;ratioP1;P1;durP2;ratioP2;P2;SDS_P1;SDS_P2;PMS_P1;PMS_P2;Temp;Humidity;BMP_temperature;BMP_pressure;BME280_temperature;BME280_humidity;BME280_pressure;Samples;Min_cycle;Max_cycle;Signal;HPM_P1;HPM_P2
2022/03/31 00:02:05;;;;;;;26.55;12.77;;;;;;;;;;6251936;23;20008;-94
2022/03/31 00:04:31;;;;;;;26.85;12.52;;;;;;;;;;6252230;23;20354;-93
2022/03/31 00:06:57;;;;;;;27.40;11.70;;;;;;;;;;6225450;23;20008;-94
2022/03/31 00:09:23;;;;;;;27.23;12.73;;;;;;;;;;6251932;23;20012;-93
2022/03/31 00:11:49;;;;;;;34.63;12.75;;;;;;;;;;6251810;23;20043;-94
2022/03/31 00:14:15;;;;;;;31.08;11.88;;;;;;;;;;6225570;23;20011;-93
2022/03/31 00:16:41;;;;;;;27.80;12.35;;;;;;;;;;6251649;23;20000;-93
2022/03/31 00:19:07;;;;;;;31.05;11.68;;;;;;;;;;6252088;23;20000;-93
2022/03/31 00:21:34;;;;;;;29.05;11.45;;;;;;;;;;6252159;23;19996;-93
2022/03/31 00:24:00;;;;;;;29.83;11.50;;;;;;;;;;6225355;23;20079;-92
2022/03/31 00:26:26;;;;;;;25.83;11.75;;;;;;;;;;6252042;23;20062;-93
2022/03/31 00:28:52;;;;;;;32.33;12.00;;;;;;;;;;6251923;23;20007;-92
2022/03/31 00:31:18;;;;;;;24.80;11.80;;;;;;;;;;6251968;23;20083;-92
2022/03/31 00:33:44;;;;;;;35.47;11.75;;;;;;;;;;6251901;22;20351;-95
2022/03/31 00:36:12;;;;;;;32.42;11.88;;;;;;;;;;6225091;23;20382;-93
2022/03/31 00:38:38;;;;;;;32.53;11.88;;;;;;;;;;6251725;23;20006;-93
2022/03/31 00:41:04;;;;;;;29.27;12.18;;;;;;;;;;6251812;23;20354;-93
2022/03/31 00:43:31;;;;;;;33.25;12.35;;;;;;;;;;6225246;23;20286;-94
2022/03/31 00:45:58;;;;;;;33.13;11.38;;;;;;;;;;6225277;23;20004;-93
2022/03/31 00:48:24;;;;;;;28.13;10.85;;;;;;;;;;6252117;23;20411;-93
2022/03/31 00:50:51;;;;;;;28.95;11.15;;;;;;;;;;6251593;23;20075;-93
2022/03/31 00:53:17;;;;;;;28.50;11.85;;;;;;;;;;6225090;23;20011;-95
2022/03/31 00:55:47;;;;;;;35.88;15.50;;;;;;;;;;6251807;23;20254;-93
2022/03/31 00:58:13;;;;;;;29.85;12.43;;;;;;;;;;6224863;23;20014;-95
2022/03/31 01:00:39;;;;;;;38.53;11.48;;;;;;;;;;6251361;23;20000;-94
2022/03/31 01:03:05;;;;;;;36.58;10.88;;;;;;;;;;6251361;23;20031;-94
2022/03/31 01:05:31;;;;;;;26.00;10.55;;;;;;;;;;6225564;23;20127;-93
2022/03/31 01:07:58;;;;;;;28.90;9.32;;;;;;;;;;6224972;23;20011;-94
2022/03/31 01:10:24;;;;;;;32.40;10.20;;;;;;;;;;6251753;23;20004;-92
2022/03/31 01:12:50;;;;;;;31.95;9.57;;;;;;;;;;6251572;23;20004;-93
2022/03/31 01:15:18;;;;;;;30.00;9.60;;;;;;;;;;6225000;23;20004;-93
2022/03/31 01:17:45;;;;;;;34.47;10.45;;;;;;;;;;6251521;23;20000;-94
2022/03/31 01:20:14;;;;;;;31.42;9.13;;;;;;;;;;6251264;23;20000;-92
2022/03/31 01:22:42;;;;;;;42.22;10.30;;;;;;;;;;6251343;23;20000;-93
2022/03/31 01:25:09;;;;;;;38.65;10.55;;;;;;;;;;6251312;23;20405;-92
2022/03/31 01:27:36;;;;;;;38.65;10.05;;;;;;;;;;6224788;23;20035;-93
2022/03/31 01:30:05;;;;;;;37.63;10.13;;;;;;;;;;6251582;23;20004;-91
2022/03/31 01:32:31;;;;;;;41.35;10.93;;;;;;;;;;6224606;23;20258;-92
2022/03/31 01:34:57;;;;;;;31.45;10.13;;;;;;;;;;6251566;22;20013;-93
2022/03/31 01:37:24;;;;;;;36.67;11.32;;;;;;;;;;6224465;23;20394;-92
2022/03/31 01:39:50;;;;;;;35.20;10.60;;;;;;;;;;6251592;23;20051;-94
2022/03/31 01:42:16;;;;;;;36.25;11.00;;;;;;;;;;6224922;23;20000;-92
2022/03/31 01:44:42;;;;;;;42.78;10.68;;;;;;;;;;6251343;23;20007;-92
2022/03/31 01:47:09;;;;;;;33.72;11.07;;;;;;;;;;6224787;23;20074;-91
2022/03/31 01:49:36;;;;;;;31.13;11.07;;;;;;;;;;6224498;23;20004;-92
2022/03/31 01:52:02;;;;;;;40.38;11.10;;;;;;;;;;6251421;23;20024;-93
2022/03/31 01:54:30;;;;;;;35.53;11.07;;;;;;;;;;6224658;23;20286;-93
2022/03/31 01:56:56;;;;;;;30.17;10.98;;;;;;;;;;6251466;23;20027;-93
2022/03/31 01:59:22;;;;;;;31.02;10.68;;;;;;;;;;6224909;23;20385;-92
2022/03/31 02:01:48;;;;;;;37.42;11.23;;;;;;;;;;6251464;23;20002;-93
2022/03/31 02:04:15;;;;;;;35.58;10.88;;;;;;;;;;6251327;23;20043;-95
2022/03/31 02:06:42;;;;;;;34.65;10.38;;;;;;;;;;6251117;23;20000;-94
2022/03/31 02:09:08;;;;;;;37.17;11.63;;;;;;;;;;6252269;23;20291;-93
2022/03/31 02:11:34;;;;;;;32.95;10.50;;;;;;;;;;6253389;23;20000;-94
2022/03/31 02:14:00;;;;;;;29.98;10.52;;;;;;;;;;6253420;23;20371;-94
2022/03/31 02:16:26;;;;;;;32.33;10.68;;;;;;;;;;6226755;23;20183;-93
2022/03/31 02:18:53;;;;;;;32.25;10.13;;;;;;;;;;6252828;23;20000;-92
2022/03/31 02:21:19;;;;;;;39.28;11.48;;;;;;;;;;6226451;23;20004;-93
2022/03/31 02:23:45;;;;;;;31.63;10.88;;;;;;;;;;6226589;23;20007;-93
2022/03/31 02:26:12;;;;;;;34.60;10.98;;;;;;;;;;6226551;23;20092;-95
2022/03/31 02:28:39;;;;;;;34.72;9.57;;;;;;;;;;6226602;23;20004;-94
2022/03/31 02:31:05;;;;;;;35.05;9.90;;;;;;;;;;6252858;23;20004;-94
2022/03/31 02:33:31;;;;;;;25.13;9.90;;;;;;;;;;6226692;22;20362;-94
2022/03/31 02:35:58;;;;;;;28.80;9.93;;;;;;;;;;6252856;23;20310;-92
2022/03/31 02:38:24;;;;;;;27.40;9.50;;;;;;;;;;6252497;23;20012;-93
2022/03/31 02:40:50;;;;;;;37.75;10.88;;;;;;;;;;6252492;23;20008;-92
2022/03/31 02:43:16;;;;;;;36.63;10.90;;;;;;;;;;6252775;23;20382;-92
2022/03/31 02:45:42;;;;;;;33.45;10.27;;;;;;;;;;6252747;23;20001;-92
2022/03/31 02:48:08;;;;;;;29.73;8.75;;;;;;;;;;6253050;23;20414;-92
2022/03/31 02:50:34;;;;;;;31.83;9.57;;;;;;;;;;6252826;23;20454;-94
2022/03/31 02:55:45;;;;;;;34.88;10.18;;;;;;;;;;6252796;23;20417;-94
2022/03/31 02:58:11;;;;;;;29.20;8.75;;;;;;;;;;6252937;23;20007;-94
2022/03/31 03:00:37;;;;;;;27.55;9.02;;;;;;;;;;6226176;23;20314;-94
2022/03/31 03:03:04;;;;;;;28.23;8.48;;;;;;;;;;6252792;23;20000;-96
2022/03/31 03:05:30;;;;;;;35.58;10.45;;;;;;;;;;6226310;23;20015;-93
2022/03/31 03:07:56;;;;;;;32.05;9.60;;;;;;;;;;6226266;23;20008;-95
2022/03/31 03:10:23;;;;;;;34.10;10.82;;;;;;;;;;6226434;23;20011;-93
2022/03/31 03:12:52;;;;;;;33.67;10.77;;;;;;;;;;6226046;23;20255;-94
2022/03/31 03:15:19;;;;;;;32.92;10.23;;;;;;;;;;6226075;23;20008;-94
2022/03/31 03:17:45;;;;;;;26.08;8.80;;;;;;;;;;6252766;23;20007;-94
2022/03/31 03:20:13;;;;;;;31.10;9.32;;;;;;;;;;6252232;23;20386;-93
2022/03/31 03:22:49;;;;;;;32.88;8.85;;;;;;;;;;6252809;23;20000;-92
2022/03/31 03:25:17;;;;;;;31.33;8.95;;;;;;;;;;6252751;23;20000;-93
2022/03/31 03:27:44;;;;;;;26.08;7.47;;;;;;;;;;6252784;23;20359;-93
2022/03/31 03:30:11;;;;;;;23.40;7.30;;;;;;;;;;6252340;23;20083;-93
2022/03/31 03:32:37;;;;;;;25.00;6.88;;;;;;;;;;6252344;23;20366;-92
2022/03/31 03:35:04;;;;;;;27.15;6.95;;;;;;;;;;6252140;22;20194;-92
2022/03/31 03:37:30;;;;;;;26.73;7.32;;;;;;;;;;6251917;23;20000;-92
2022/03/31 03:39:56;;;;;;;27.67;7.53;;;;;;;;;;6252694;23;19996;-92
2022/03/31 03:42:23;;;;;;;23.45;6.75;;;;;;;;;;6252390;23;19992;-93
2022/03/31 03:44:49;;;;;;;29.02;7.07;;;;;;;;;;6225995;23;20030;-92
2022/03/31 03:47:15;;;;;;;22.05;6.95;;;;;;;;;;6252622;23;20075;-92
2022/03/31 03:49:41;;;;;;;31.63;6.80;;;;;;;;;;6225601;23;19996;-92
2022/03/31 03:52:07;;;;;;;19.00;6.38;;;;;;;;;;6252445;23;20011;-93
2022/03/31 03:54:33;;;;;;;19.90;6.55;;;;;;;;;;6225594;23;20004;-92
2022/03/31 03:56:59;;;;;;;26.08;6.30;;;;;;;;;;6252361;23;20434;-92
2022/03/31 03:59:25;;;;;;;24.77;6.53;;;;;;;;;;6252337;23;20000;-92
2022/03/31 04:01:51;;;;;;;19.27;5.43;;;;;;;;;;6251888;23;20000;-93
2022/03/31 04:04:17;;;;;;;26.75;6.40;;;;;;;;;;6252565;23;20009;-93
2022/03/31 04:06:43;;;;;;;21.42;6.20;;;;;;;;;;6252268;23;20004;-92
2022/03/31 04:09:09;;;;;;;17.38;4.80;;;;;;;;;;6224893;23;20405;-93
2022/03/31 04:11:36;;;;;;;24.58;5.55;;;;;;;;;;6252291;23;20294;-92
2022/03/31 04:14:02;;;;;;;16.77;5.13;;;;;;;;;;6252127;23;20023;-92
2022/03/31 04:16:28;;;;;;;19.48;5.53;;;;;;;;;;6252344;23;20004;-92
2022/03/31 04:18:54;;;;;;;21.25;5.97;;;;;;;;;;6251533;23;20095;-93
2022/03/31 04:21:20;;;;;;;20.60;5.95;;;;;;;;;;6225473;23;20004;-94
2022/03/31 04:23:46;;;;;;;18.63;6.03;;;;;;;;;;6251911;23;19997;-93
2022/03/31 04:26:12;;;;;;;22.55;5.32;;;;;;;;;;6225492;23;20007;-94
2022/03/31 04:28:38;;;;;;;15.82;5.18;;;;;;;;;;6225458;23;20024;-93
2022/03/31 04:31:04;;;;;;;20.08;5.97;;;;;;;;;;6224006;23;20004;-92
2022/03/31 04:33:30;;;;;;;17.00;6.18;;;;;;;;;;6251907;22;20004;-92
2022/03/31 04:35:56;;;;;;;16.13;6.22;;;;;;;;;;6251537;23;20028;-91
2022/03/31 04:38:22;;;;;;;20.48;7.57;;;;;;;;;;6251669;23;20000;-91
2022/03/31 04:40:48;;;;;;;20.48;5.50;;;;;;;;;;6251929;23;20012;-91
2022/03/31 04:43:15;;;;;;;23.70;6.40;;;;;;;;;;6251934;23;20031;-93
2022/03/31 04:45:41;;;;;;;19.83;6.25;;;;;;;;;;6251907;23;20080;-93
2022/03/31 04:48:08;;;;;;;21.33;6.22;;;;;;;;;;6253222;23;20059;-94
2022/03/31 04:50:34;;;;;;;15.68;6.10;;;;;;;;;;6253133;23;20004;-94
2022/03/31 04:53:00;;;;;;;18.38;5.75;;;;;;;;;;6251284;23;20022;-94
2022/03/31 04:55:27;;;;;;;17.05;6.05;;;;;;;;;;6226434;23;20086;-94
2022/03/31 04:57:53;;;;;;;17.42;5.78;;;;;;;;;;6225449;23;20008;-95
2022/03/31 05:00:19;;;;;;;19.48;5.38;;;;;;;;;;6252110;23;20001;-95
2022/03/31 05:02:45;;;;;;;23.30;6.97;;;;;;;;;;6225159;23;19996;-95
2022/03/31 05:05:12;;;;;;;20.88;7.07;;;;;;;;;;6251365;23;20014;-95
2022/03/31 05:07:39;;;;;;;17.80;7.05;;;;;;;;;;6224457;23;20145;-94
2022/03/31 05:10:05;;;;;;;17.20;6.63;;;;;;;;;;6225306;23;20004;-94
2022/03/31 05:12:31;;;;;;;22.88;7.78;;;;;;;;;;6225810;23;20050;-95
2022/03/31 05:14:58;;;;;;;17.30;5.85;;;;;;;;;;6251694;23;20028;-94
2022/03/31 05:17:24;;;;;;;21.27;6.18;;;;;;;;;;6252032;23;20008;-96
2022/03/31 05:19:50;;;;;;;22.13;6.65;;;;;;;;;;6252260;23;19996;-95
2022/03/31 05:22:16;;;;;;;20.17;6.88;;;;;;;;;;6252162;23;20038;-96
2022/03/31 05:24:42;;;;;;;18.42;6.63;;;;;;;;;;6252397;23;20247;-93
2022/03/31 05:27:08;;;;;;;16.48;6.95;;;;;;;;;;6251477;23;20004;-95
2022/03/31 05:29:35;;;;;;;21.45;6.88;;;;;;;;;;6224478;23;20087;-95
2022/03/31 05:32:01;;;;;;;20.52;7.75;;;;;;;;;;6251707;23;20414;-94
2022/03/31 05:34:27;;;;;;;22.55;8.57;;;;;;;;;;6251167;22;20004;-93
2022/03/31 05:36:53;;;;;;;21.58;8.02;;;;;;;;;;6251108;23;20115;-94
2022/03/31 05:39:20;;;;;;;21.33;9.48;;;;;;;;;;6251122;23;20077;-94
2022/03/31 05:41:46;;;;;;;28.23;10.10;;;;;;;;;;6251235;23;20000;-94
2022/03/31 05:44:12;;;;;;;23.25;10.68;;;;;;;;;;6226684;23;20010;-95
2022/03/31 05:46:38;;;;;;;23.00;9.13;;;;;;;;;;6253682;23;20004;-94
2022/03/31 05:49:04;;;;;;;21.65;9.43;;;;;;;;;;6253694;23;20000;-94
2022/03/31 05:51:30;;;;;;;21.25;8.32;;;;;;;;;;6253387;23;20383;-93
2022/03/31 05:53:56;;;;;;;19.52;8.68;;;;;;;;;;6253598;23;20355;-93
2022/03/31 05:56:22;;;;;;;16.33;7.40;;;;;;;;;;6226218;23;20083;-95
2022/03/31 05:58:49;;;;;;;19.88;6.60;;;;;;;;;;6253986;23;20026;-94
2022/03/31 06:01:16;;;;;;;19.40;7.10;;;;;;;;;;6227353;23;20006;-95
2022/03/31 06:03:43;;;;;;;18.90;7.03;;;;;;;;;;6253925;23;20067;-95
2022/03/31 06:06:09;;;;;;;21.35;7.97;;;;;;;;;;6227552;23;20058;-94
2022/03/31 06:08:35;;;;;;;34.72;9.90;;;;;;;;;;6226943;23;20262;-96
2022/03/31 06:11:01;;;;;;;24.73;9.77;;;;;;;;;;6253712;23;20008;-92
2022/03/31 06:13:27;;;;;;;29.73;9.57;;;;;;;;;;6253311;23;20075;-94
2022/03/31 06:15:54;;;;;;;32.05;10.75;;;;;;;;;;6227747;23;20000;-94
2022/03/31 06:18:22;;;;;;;27.38;10.05;;;;;;;;;;6253633;23;20009;-94
2022/03/31 06:20:48;;;;;;;24.65;9.57;;;;;;;;;;6253450;23;20239;-94
2022/03/31 06:23:18;;;;;;;29.13;13.18;;;;;;;;;;6255950;23;20004;-96
2022/03/31 06:25:44;;;;;;;27.33;11.50;;;;;;;;;;6254324;23;20000;-93
2022/03/31 06:28:10;;;;;;;26.13;10.63;;;;;;;;;;6253788;23;20031;-93
2022/03/31 06:30:36;;;;;;;18.02;9.07;;;;;;;;;;6228089;23;20008;-95
2022/03/31 06:33:03;;;;;;;22.80;8.73;;;;;;;;;;6253495;23;20236;-93
2022/03/31 06:35:29;;;;;;;19.30;7.63;;;;;;;;;;6255007;22;20275;-94
2022/03/31 06:37:55;;;;;;;18.27;7.38;;;;;;;;;;6256245;23;20332;-94
2022/03/31 06:40:21;;;;;;;21.70;8.27;;;;;;;;;;6229078;23;20011;-95
2022/03/31 06:42:48;;;;;;;29.25;10.32;;;;;;;;;;6257579;23;19993;-94
2022/03/31 06:45:16;;;;;;;33.85;10.73;;;;;;;;;;6227444;23;20034;-94
2022/03/31 06:47:43;;;;;;;30.23;12.38;;;;;;;;;;6227832;23;20000;-95
2022/03/31 06:50:10;;;;;;;28.70;10.27;;;;;;;;;;6253363;23;20000;-94
2022/03/31 06:52:37;;;;;;;40.20;13.50;;;;;;;;;;6254915;23;20004;-95
2022/03/31 06:55:03;;;;;;;42.08;14.18;;;;;;;;;;6228637;23;20015;-95
2022/03/31 07:09:22;;;;;;;31.60;10.77;;;;;;;;;;5096013;27;20370;-96
2022/03/31 07:11:48;;;;;;;30.60;11.10;;;;;;;;;;5097769;28;20481;-95
2022/03/31 07:14:14;;;;;;;29.13;11.05;;;;;;;;;;5100348;28;20039;-95
2022/03/31 07:16:40;;;;;;;31.05;11.85;;;;;;;;;;5102625;28;20028;-96
2022/03/31 07:19:07;;;;;;;37.05;11.50;;;;;;;;;;5100331;28;20048;-96
2022/03/31 07:21:33;;;;;;;37.55;13.27;;;;;;;;;;5098613;28;20016;-95
2022/03/31 07:24:01;;;;;;;36.05;14.27;;;;;;;;;;5096641;28;20040;-95
2022/03/31 07:26:27;;;;;;;36.38;13.35;;;;;;;;;;5094541;28;20410;-96
2022/03/31 07:28:54;;;;;;;29.80;12.07;;;;;;;;;;5099217;28;20035;-95
2022/03/31 07:31:20;;;;;;;27.83;10.85;;;;;;;;;;5094079;28;20421;-96
2022/03/31 07:33:46;;;;;;;26.67;11.48;;;;;;;;;;5095021;28;20323;-96
2022/03/31 07:36:13;;;;;;;23.55;11.32;;;;;;;;;;5095141;28;20020;-96
2022/03/31 07:38:39;;;;;;;31.08;11.88;;;;;;;;;;5095738;28;20032;-96
2022/03/31 07:41:05;;;;;;;28.23;11.27;;;;;;;;;;5098394;28;20032;-96
2022/03/31 07:43:32;;;;;;;34.25;12.85;;;;;;;;;;5099171;28;20028;-95
2022/03/31 07:45:59;;;;;;;32.28;13.38;;;;;;;;;;5083089;28;20115;-95
2022/03/31 07:48:25;;;;;;;29.45;12.52;;;;;;;;;;5096704;28;20032;-95
2022/03/31 07:50:54;;;;;;;31.88;10.68;;;;;;;;;;5093703;28;20032;-94
2022/03/31 07:53:20;;;;;;;28.15;9.10;;;;;;;;;;5093612;28;20037;-95
2022/03/31 07:55:46;;;;;;;27.38;9.23;;;;;;;;;;5093564;28;20295;-95
2022/03/31 07:58:12;;;;;;;27.63;9.90;;;;;;;;;;5094096;28;20044;-96
2022/03/31 08:00:39;;;;;;;25.10;10.27;;;;;;;;;;5094028;28;20414;-95
2022/03/31 08:03:05;;;;;;;27.95;9.07;;;;;;;;;;5093315;28;20029;-96
2022/03/31 08:26:50;;;;;;;25.33;7.95;;;;;;;;;;5485696;23;20050;-96
2022/03/31 08:29:22;;;;;;;27.65;8.85;;;;;;;;;;4940407;23;20056;-96
2022/03/31 08:39:36;;;;;;;27.20;8.57;;;;;;;;;;5834158;23;20146;-96
2022/03/31 08:42:07;;;;;;;30.83;8.80;;;;;;;;;;4950002;29;20031;-91
2022/03/31 08:44:56;;;;;;;33.53;8.60;;;;;;;;;;4949997;29;20042;-95
2022/03/31 08:47:22;;;;;;;27.23;8.00;;;;;;;;;;4934315;29;20044;-96
2022/03/31 08:50:04;;;;;;;29.35;8.32;;;;;;;;;;4958950;29;20030;-96
2022/03/31 08:52:32;;;;;;;;;;;;;;;;;;5098537;23;20480;-95
2022/03/31 08:54:59;;;;;;;30.65;9.77;;;;;;;;;;4921915;29;19907;-96
2022/03/31 08:57:51;;;;;;;35.95;10.27;;;;;;;;;;4939305;29;20068;-96
2022/03/31 09:15:53;;;;;;;30.23;8.65;;;;;;;;;;5967199;23;21015;-94
2022/03/31 09:26:16;;;;;;;31.92;8.95;;;;;;;;;;4967903;23;20063;-96
2022/03/31 09:28:44;;;;;;;34.78;8.40;;;;;;;;;;4987279;23;20056;-96
2022/03/31 09:45:17;;;;;;;38.58;8.88;;;;;;;;;;5993576;23;20029;-94
2022/03/31 09:47:44;;;;;;;46.03;10.52;;;;;;;;;;4941698;29;20187;-87
2022/03/31 09:50:12;;;;;;;34.45;9.50;;;;;;;;;;4923968;29;20071;-94
2022/03/31 09:52:38;;;;;;;32.72;8.20;;;;;;;;;;4923230;29;20075;-88
2022/03/31 09:55:05;;;;;;;35.20;8.80;;;;;;;;;;4941274;29;20028;-86
2022/03/31 09:57:32;;;;;;;42.75;8.50;;;;;;;;;;4940979;29;20495;-87
2022/03/31 09:59:58;;;;;;;33.95;8.75;;;;;;;;;;4941006;29;20052;-87
2022/03/31 10:02:24;;;;;;;32.15;8.20;;;;;;;;;;4940786;29;20039;-88
2022/03/31 10:04:54;;;;;;;31.00;7.15;;;;;;;;;;4923241;29;20040;-87
2022/03/31 10:07:22;;;;;;;35.85;7.20;;;;;;;;;;4940762;29;20066;-88
2022/03/31 10:09:48;;;;;;;30.00;7.10;;;;;;;;;;4940893;29;20330;-87
2022/03/31 10:12:14;;;;;;;27.13;6.20;;;;;;;;;;4924040;29;20114;-86
2022/03/31 10:14:46;;;;;;;30.70;6.82;;;;;;;;;;4940792;29;20020;-87
2022/03/31 10:17:13;;;;;;;26.85;7.68;;;;;;;;;;4941012;29;20038;-87
2022/03/31 10:19:40;;;;;;;23.45;6.07;;;;;;;;;;4940772;29;20102;-87
2022/03/31 10:24:40;;;;;;;29.38;6.32;;;;;;;;;;4940886;29;20050;-87
2022/03/31 10:24:56;;;;;;;21.42;5.85;;;;;;;;;;4940496;29;20473;-87
2022/03/31 10:27:27;;;;;;;27.17;6.13;;;;;;;;;;4940753;29;20287;-87
2022/03/31 10:29:53;;;;;;;29.10;6.53;;;;;;;;;;4940324;29;20438;-87
2022/03/31 10:32:23;;;;;;;33.90;7.47;;;;;;;;;;4940338;29;20028;-87
2022/03/31 10:34:54;;;;;;;31.83;6.32;;;;;;;;;;4940521;29;20315;-88
2022/03/31 10:37:35;;;;;;;25.92;6.40;;;;;;;;;;4923622;29;20031;-86
2022/03/31 10:40:03;;;;;;;33.15;7.10;;;;;;;;;;4940474;29;20043;-87
2022/03/31 10:42:29;;;;;;;30.42;6.55;;;;;;;;;;4940237;29;20473;-87
2022/03/31 10:45:05;;;;;;;29.30;5.85;;;;;;;;;;4940248;29;20062;-88
2022/03/31 10:47:32;;;;;;;26.65;6.22;;;;;;;;;;4923569;29;20052;-86
2022/03/31 10:49:58;;;;;;;26.38;6.20;;;;;;;;;;4939885;29;20425;-87
2022/03/31 10:52:24;;;;;;;24.65;6.22;;;;;;;;;;4940392;29;20020;-87
2022/03/31 10:55:03;;;;;;;31.08;7.30;;;;;;;;;;4940459;29;20023;-87
2022/03/31 10:57:37;;;;;;;18.52;5.97;;;;;;;;;;4940163;29;20143;-86
2022/03/31 11:00:07;;;;;;;21.98;5.07;;;;;;;;;;4940232;29;20075;-87
2022/03/31 11:02:39;;;;;;;27.90;5.57;;;;;;;;;;4939587;29;20496;-88
2022/03/31 11:05:05;;;;;;;24.10;5.60;;;;;;;;;;4940163;29;20031;-87
2022/03/31 11:07:32;;;;;;;22.40;5.80;;;;;;;;;;4923628;29;20063;-87
2022/03/31 11:10:08;;;;;;;26.48;6.10;;;;;;;;;;4940173;29;20035;-87
2022/03/31 11:12:36;;;;;;;29.33;5.90;;;;;;;;;;4940090;29;20035;-87
2022/03/31 11:15:07;;;;;;;22.25;6.35;;;;;;;;;;4939737;29;20036;-88
2022/03/31 11:17:33;;;;;;;22.40;6.63;;;;;;;;;;4922838;29;20051;-88
2022/03/31 11:20:03;;;;;;;24.08;6.97;;;;;;;;;;4939782;29;20032;-88
2022/03/31 11:22:29;;;;;;;18.92;6.22;;;;;;;;;;4940362;29;20035;-89
2022/03/31 11:25:07;;;;;;;17.85;6.32;;;;;;;;;;4939903;29;20048;-88
2022/03/31 11:27:37;;;;;;;15.88;5.00;;;;;;;;;;4923010;29;20027;-88
2022/03/31 11:30:11;;;;;;;19.30;5.25;;;;;;;;;;4939768;29;20028;-88
2022/03/31 11:32:38;;;;;;;16.88;3.92;;;;;;;;;;4939873;29;20023;-87
2022/03/31 11:35:09;;;;;;;19.08;3.92;;;;;;;;;;4922813;29;20127;-87
2022/03/31 11:37:35;;;;;;;11.55;3.88;;;;;;;;;;4939941;29;20032;-87
2022/03/31 11:40:03;;;;;;;14.52;3.80;;;;;;;;;;4940042;29;20024;-87
2022/03/31 11:42:31;;;;;;;10.32;3.83;;;;;;;;;;4939854;29;20087;-88
2022/03/31 11:44:57;;;;;;;15.27;4.13;;;;;;;;;;4942368;29;20035;-87
2022/03/31 11:47:24;;;;;;;16.70;4.03;;;;;;;;;;4926370;29;20051;-87
2022/03/31 11:50:00;;;;;;;15.88;4.88;;;;;;;;;;4926516;29;20453;-88
2022/03/31 11:52:30;;;;;;;15.43;4.07;;;;;;;;;;4926091;29;20039;-87
2022/03/31 11:54:59;;;;;;;14.85;4.10;;;;;;;;;;4943220;29;20028;-87
2022/03/31 11:57:25;;;;;;;12.20;3.97;;;;;;;;;;4926377;29;20031;-87
2022/03/31 11:59:51;;;;;;;18.48;4.78;;;;;;;;;;4943054;29;20070;-87
2022/03/31 12:02:18;;;;;;;13.20;3.80;;;;;;;;;;4943202;29;20026;-87
2022/03/31 12:04:45;;;;;;;14.52;3.63;;;;;;;;;;4943048;29;20032;-87
2022/03/31 12:07:12;;;;;;;11.23;3.05;;;;;;;;;;4942908;29;20158;-87
2022/03/31 12:09:41;;;;;;;9.98;3.05;;;;;;;;;;4942807;29;20071;-87
2022/03/31 12:12:11;;;;;;;8.13;3.72;;;;;;;;;;4926228;29;20118;-87
2022/03/31 12:14:38;;;;;;;24.20;10.50;;;;;;;;;;4942733;29;20132;-87
2022/03/31 12:17:04;;;;;;;16.88;4.72;;;;;;;;;;4925837;29;20039;-87
2022/03/31 12:19:38;;;;;;;21.60;14.07;;;;;;;;;;4925487;29;20071;-87
2022/03/31 12:22:05;;;;;;;44.80;24.30;;;;;;;;;;4942738;29;20028;-87
2022/03/31 12:24:31;;;;;;;28.55;14.77;;;;;;;;;;4922432;29;20338;-87
2022/03/31 12:26:58;;;;;;;14.45;6.75;;;;;;;;;;4931812;29;20409;-88
2022/03/31 12:29:26;;;;;;;41.80;19.40;;;;;;;;;;4924414;29;20419;-87
2022/03/31 12:32:09;;;;;;;21.52;11.93;;;;;;;;;;4923615;29;20024;-87
2022/03/31 12:34:36;;;;;;;11.77;6.05;;;;;;;;;;4923662;29;20059;-88
2022/03/31 12:37:02;;;;;;;13.68;5.50;;;;;;;;;;4924461;29;20035;-87
2022/03/31 12:39:28;;;;;;;15.38;5.18;;;;;;;;;;4933838;29;20037;-87
2022/03/31 12:41:56;;;;;;;14.05;4.82;;;;;;;;;;4933606;29;20115;-88
2022/03/31 12:44:24;;;;;;;13.48;4.82;;;;;;;;;;4937142;29;20031;-87
2022/03/31 12:46:54;;;;;;;11.70;4.75;;;;;;;;;;4942358;29;20067;-87
2022/03/31 12:49:22;;;;;;;23.95;5.25;;;;;;;;;;4925527;29;20028;-86
2022/03/31 12:51:55;;;;;;;17.65;4.35;;;;;;;;;;4942066;29;20117;-86
2022/03/31 12:57:28;;;;;;;18.83;5.22;;;;;;;;;;4946622;29;20091;-96
2022/03/31 13:00:00;;;;;;;15.65;4.65;;;;;;;;;;4945276;29;20094;-95
2022/03/31 13:02:56;;;;;;;18.73;4.63;;;;;;;;;;4926794;29;20458;-94
2022/03/31 13:09:02;;;;;;;15.23;5.22;;;;;;;;;;4811451;29;20049;-94
2022/03/31 13:11:29;;;;;;;20.20;5.82;;;;;;;;;;4783628;29;20039;-95
2022/03/31 13:14:23;;;;;;;23.40;6.50;;;;;;;;;;4802077;29;20031;-96
2022/03/31 13:16:57;;;;;;;25.73;8.05;;;;;;;;;;4977333;23;20080;-94
2022/03/31 13:19:24;;;;;;;25.70;7.88;;;;;;;;;;4936497;29;20044;-96
2022/03/31 13:21:51;;;;;;;23.15;6.90;;;;;;;;;;4916762;29;20051;-96
2022/03/31 13:24:17;;;;;;;26.63;8.10;;;;;;;;;;4930708;29;20032;-96
2022/03/31 13:26:44;;;;;;;23.77;8.20;;;;;;;;;;4914227;29;20032;-96
2022/03/31 13:29:11;;;;;;;22.35;7.93;;;;;;;;;;4930028;29;20032;-95
2022/03/31 13:31:40;;;;;;;18.58;7.28;;;;;;;;;;4927357;29;20024;-95
2022/03/31 13:34:08;;;;;;;21.48;6.72;;;;;;;;;;4927011;29;20021;-96
2022/03/31 13:36:35;;;;;;;18.85;7.40;;;;;;;;;;4926805;29;20024;-96
2022/03/31 13:39:01;;;;;;;24.25;8.18;;;;;;;;;;4926885;29;20024;-94
2022/03/31 13:41:28;;;;;;;18.70;7.13;;;;;;;;;;4926494;29;20036;-96
2022/03/31 13:43:54;;;;;;;17.88;7.80;;;;;;;;;;4924448;29;20028;-96
2022/03/31 13:46:20;;;;;;;24.60;8.15;;;;;;;;;;4923888;29;20110;-96
2022/03/31 13:48:46;;;;;;;25.08;8.18;;;;;;;;;;4924600;29;20036;-96
2022/03/31 13:51:12;;;;;;;23.00;7.40;;;;;;;;;;4941902;29;20043;-96
2022/03/31 13:53:46;;;;;;;23.30;8.63;;;;;;;;;;4931407;29;20403;-96
2022/03/31 13:56:15;;;;;;;24.38;10.52;;;;;;;;;;4937026;29;20060;-96
2022/03/31 14:04:54;;;;;;;24.80;10.70;;;;;;;;;;4941516;29;20047;-96
2022/03/31 14:12:26;;;;;;;26.08;8.55;;;;;;;;;;5316675;23;20044;-96
2022/03/31 14:17:31;;;;;;;26.38;8.18;;;;;;;;;;4964137;23;20075;-95
2022/03/31 14:19:57;;;;;;;24.92;7.70;;;;;;;;;;4937030;29;20036;-96
2022/03/31 14:22:25;;;;;;;26.85;7.35;;;;;;;;;;4938485;29;20123;-96
2022/03/31 14:24:51;;;;;;;25.55;7.57;;;;;;;;;;4952469;29;20028;-96
2022/03/31 14:27:18;;;;;;;28.23;7.90;;;;;;;;;;4953559;29;20031;-95
2022/03/31 14:29:48;;;;;;;18.55;7.20;;;;;;;;;;4955521;29;20048;-95
2022/03/31 14:32:15;;;;;;;22.30;7.15;;;;;;;;;;4953830;29;20050;-96
2022/03/31 14:34:42;;;;;;;20.30;6.82;;;;;;;;;;4929031;29;20052;-95
2022/03/31 14:37:08;;;;;;;26.15;7.60;;;;;;;;;;4934535;29;20035;-96
2022/03/31 14:39:34;;;;;;;24.55;7.72;;;;;;;;;;4943318;29;20038;-96
2022/03/31 14:42:04;;;;;;;23.40;7.50;;;;;;;;;;4932668;29;20402;-95
2022/03/31 14:44:30;;;;;;;20.70;8.45;;;;;;;;;;4933675;29;20035;-96
2022/03/31 14:46:57;;;;;;;18.10;7.05;;;;;;;;;;4949321;29;20102;-96
2022/03/31 14:49:24;;;;;;;18.08;7.32;;;;;;;;;;4932317;29;20023;-96
2022/03/31 14:51:51;;;;;;;18.80;8.60;;;;;;;;;;4949647;29;20027;-96
2022/03/31 14:54:19;;;;;;;23.85;9.70;;;;;;;;;;4950897;29;20414;-95
2022/03/31 14:56:45;;;;;;;23.80;8.65;;;;;;;;;;4952879;29;20024;-95
2022/03/31 14:59:11;;;;;;;26.23;9.57;;;;;;;;;;4948224;29;20031;-95
2022/03/31 15:01:37;;;;;;;25.30;11.75;;;;;;;;;;4943242;29;20028;-95
2022/03/31 15:04:04;;;;;;;22.15;10.88;;;;;;;;;;4931613;29;20044;-96
2022/03/31 15:06:30;;;;;;;17.65;7.80;;;;;;;;;;4931118;29;20039;-96
2022/03/31 15:08:58;;;;;;;22.08;7.78;;;;;;;;;;4941603;29;20036;-95
2022/03/31 15:14:30;;;;;;;20.15;8.13;;;;;;;;;;4933217;29;20088;-96
2022/03/31 15:16:57;;;;;;;15.98;7.22;;;;;;;;;;4916791;29;20062;-94
2022/03/31 15:19:26;;;;;;;27.33;8.05;;;;;;;;;;4912437;29;20072;-95
2022/03/31 15:21:52;;;;;;;18.48;7.00;;;;;;;;;;4925103;29;20118;-95
2022/03/31 15:24:18;;;;;;;20.90;7.47;;;;;;;;;;4928628;29;20054;-95
2022/03/31 15:26:45;;;;;;;20.52;7.63;;;;;;;;;;4930256;29;20039;-95
2022/03/31 15:29:11;;;;;;;18.33;6.78;;;;;;;;;;4945284;29;20034;-95
2022/03/31 15:31:40;;;;;;;22.98;8.40;;;;;;;;;;4929871;29;20039;-96
2022/03/31 15:34:06;;;;;;;21.25;8.52;;;;;;;;;;4935957;29;20430;-95
2022/03/31 15:36:33;;;;;;;24.58;9.55;;;;;;;;;;4912496;29;20028;-96
2022/03/31 15:38:59;;;;;;;20.92;8.60;;;;;;;;;;4929732;29;20036;-95
2022/03/31 15:41:25;;;;;;;23.33;9.13;;;;;;;;;;4926280;29;20032;-96
2022/03/31 15:43:51;;;;;;;23.80;9.20;;;;;;;;;;4926045;29;20043;-96
2022/03/31 15:46:18;;;;;;;26.92;10.27;;;;;;;;;;4925985;29;20411;-95
2022/03/31 15:48:44;;;;;;;26.65;10.45;;;;;;;;;;4908729;29;20036;-95
2022/03/31 15:51:10;;;;;;;25.55;10.98;;;;;;;;;;4926876;29;20067;-94
2022/03/31 15:53:36;;;;;;;26.10;11.30;;;;;;;;;;4927019;29;20051;-96
2022/03/31 15:56:03;;;;;;;23.13;10.57;;;;;;;;;;4908069;29;20423;-95
2022/03/31 15:58:29;;;;;;;25.70;10.25;;;;;;;;;;4924926;29;20032;-95
2022/03/31 16:00:56;;;;;;;23.73;10.50;;;;;;;;;;4908415;29;20024;-95
2022/03/31 16:03:22;;;;;;;24.15;10.05;;;;;;;;;;4924511;29;20024;-94
2022/03/31 16:05:48;;;;;;;33.25;11.57;;;;;;;;;;4908609;29;20036;-95
2022/03/31 16:08:14;;;;;;;27.30;11.02;;;;;;;;;;4910092;29;20039;-96
2022/03/31 16:10:41;;;;;;;34.00;13.15;;;;;;;;;;4932487;29;20020;-96
2022/03/31 16:13:08;;;;;;;30.67;13.02;;;;;;;;;;4931722;29;20105;-96